sensor_id;sensor_type;location;lat;lon;timestamp;pressure;altitude;pressure_sealevel;temperature;humidity
41947;BME280;27638;42.184;24.848;2023-05-21T00:02:13;99584.97;;;18.52;86.95
41947;BME280;27638;42.184;24.848;2023-05-21T00:04:42;99581.63;;;18.25;88.39
41947;BME280;27638;42.184;24.848;2023-05-21T00:07:08;99580.94;;;18.36;88.04
41947;BME280;27638;42.184;24.848;2023-05-21T00:09:34;99578.25;;;18.36;87.93
41947;BME280;27638;42.184;24.848;2023-05-21T00:11:59;99575.19;;;18.33;88.30
41947;BME280;27638;42.184;24.848;2023-05-21T00:14:28;99564.09;;;18.29;88.37
41947;BME280;27638;42.184;24.848;2023-05-21T00:16:53;99563.44;;;18.34;87.98
41947;BME280;27638;42.184;24.848;2023-05-21T00:19:19;99560.31;;;18.37;87.33
41947;BME280;27638;42.184;24.848;2023-05-21T00:21:44;99562.56;;;18.40;87.10
41947;BME280;27638;42.184;24.848;2023-05-21T00:24:12;99556.16;;;18.41;86.85
41947;BME280;27638;42.184;24.848;2023-05-21T00:26:38;99555.56;;;18.39;87.03
41947;BME280;27638;42.184;24.848;2023-05-21T00:29:03;99563.81;;;18.37;87.36
41947;BME280;27638;42.184;24.848;2023-05-21T00:31:29;99551.69;;;18.35;87.51
41947;BME280;27638;42.184;24.848;2023-05-21T00:33:54;99548.19;;;18.34;87.90
41947;BME280;27638;42.184;24.848;2023-05-21T00:36:20;99539.53;;;18.32;87.98
41947;BME280;27638;42.184;24.848;2023-05-21T00:38:48;99548.56;;;18.38;88.23
41947;BME280;27638;42.184;24.848;2023-05-21T00:41:14;99534.56;;;18.36;87.90
41947;BME280;27638;42.184;24.848;2023-05-21T00:43:39;99530.88;;;18.30;88.54
41947;BME280;27638;42.184;24.848;2023-05-21T00:46:10;99531.72;;;18.31;88.32
41947;BME280;27638;42.184;24.848;2023-05-21T00:48:37;99528.69;;;18.21;88.78
41947;BME280;27638;42.184;24.848;2023-05-21T00:51:04;99530.75;;;18.18;88.79
41947;BME280;27638;42.184;24.848;2023-05-21T00:53:30;99542.63;;;17.98;89.78
41947;BME280;27638;42.184;24.848;2023-05-21T00:55:59;99533.28;;;17.75;92.37
41947;BME280;27638;42.184;24.848;2023-05-21T00:58:25;99531.22;;;17.77;92.32
41947;BME280;27638;42.184;24.848;2023-05-21T01:00:51;99536.75;;;17.82;91.64
41947;BME280;27638;42.184;24.848;2023-05-21T01:03:21;99530.81;;;17.74;92.91
41947;BME280;27638;42.184;24.848;2023-05-21T01:05:48;99538.44;;;17.70;93.52
41947;BME280;27638;42.184;24.848;2023-05-21T01:08:14;99510.59;;;17.78;91.89
41947;BME280;27638;42.184;24.848;2023-05-21T01:10:40;99534.22;;;17.94;91.04
41947;BME280;27638;42.184;24.848;2023-05-21T01:13:05;99532.78;;;17.92;90.37
41947;BME280;27638;42.184;24.848;2023-05-21T01:15:31;99532.03;;;17.78;90.67
41947;BME280;27638;42.184;24.848;2023-05-21T01:17:57;99525.84;;;17.77;91.38
41947;BME280;27638;42.184;24.848;2023-05-21T01:20:23;99525.31;;;18.00;90.13
41947;BME280;27638;42.184;24.848;2023-05-21T01:22:53;99519.03;;;17.81;90.46
41947;BME280;27638;42.184;24.848;2023-05-21T01:25:23;99524.75;;;17.92;90.12
41947;BME280;27638;42.184;24.848;2023-05-21T01:27:49;99520.91;;;17.81;90.75
41947;BME280;27638;42.184;24.848;2023-05-21T01:30:17;99524.22;;;17.76;91.02
41947;BME280;27638;42.184;24.848;2023-05-21T01:36:07;99524.63;;;17.67;92.35
41947;BME280;27638;42.184;24.848;2023-05-21T01:38:42;99519.28;;;17.67;92.20
41947;BME280;27638;42.184;24.848;2023-05-21T01:41:12;99520.28;;;17.66;92.24
41947;BME280;27638;42.184;24.848;2023-05-21T01:43:41;99518.66;;;17.65;91.73
41947;BME280;27638;42.184;24.848;2023-05-21T01:46:09;99518.66;;;17.65;91.76
41947;BME280;27638;42.184;24.848;2023-05-21T01:48:37;99513.09;;;17.66;91.52
41947;BME280;27638;42.184;24.848;2023-05-21T01:51:04;99519.72;;;17.70;91.25
41947;BME280;27638;42.184;24.848;2023-05-21T01:53:30;99516.22;;;17.70;91.55
41947;BME280;27638;42.184;24.848;2023-05-21T01:55:55;99511.47;;;17.72;91.40
41947;BME280;27638;42.184;24.848;2023-05-21T01:58:21;99508.56;;;17.73;91.20
41947;BME280;27638;42.184;24.848;2023-05-21T02:00:47;99509.56;;;17.66;91.93
41947;BME280;27638;42.184;24.848;2023-05-21T02:03:16;99509.41;;;17.61;92.21
41947;BME280;27638;42.184;24.848;2023-05-21T02:05:41;99509.81;;;17.58;92.08
41947;BME280;27638;42.184;24.848;2023-05-21T02:08:07;99503.81;;;17.62;91.91
41947;BME280;27638;42.184;24.848;2023-05-21T02:10:33;99506.09;;;17.59;91.68
41947;BME280;27638;42.184;24.848;2023-05-21T02:12:59;99497.22;;;17.65;90.72
41947;BME280;27638;42.184;24.848;2023-05-21T02:15:24;99508.16;;;17.63;90.93
41947;BME280;27638;42.184;24.848;2023-05-21T02:17:50;99505.47;;;17.63;90.20
41947;BME280;27638;42.184;24.848;2023-05-21T02:20:16;99500.53;;;17.60;90.20
41947;BME280;27638;42.184;24.848;2023-05-21T02:22:46;99502.41;;;17.66;90.19
41947;BME280;27638;42.184;24.848;2023-05-21T02:25:14;99502.19;;;17.61;90.57
41947;BME280;27638;42.184;24.848;2023-05-21T02:27:41;99500.34;;;17.55;90.40
41947;BME280;27638;42.184;24.848;2023-05-21T02:30:10;99503.00;;;17.62;90.15
41947;BME280;27638;42.184;24.848;2023-05-21T02:32:36;99501.56;;;17.72;89.94
41947;BME280;27638;42.184;24.848;2023-05-21T02:35:04;99501.38;;;17.67;89.99
41947;BME280;27638;42.184;24.848;2023-05-21T02:37:30;99497.25;;;17.71;89.88
41947;BME280;27638;42.184;24.848;2023-05-21T02:40:00;99500.31;;;17.68;90.15
41947;BME280;27638;42.184;24.848;2023-05-21T02:42:25;99507.13;;;17.64;90.88
41947;BME280;27638;42.184;24.848;2023-05-21T02:44:51;99503.22;;;17.67;90.69
41947;BME280;27638;42.184;24.848;2023-05-21T02:47:20;99506.72;;;17.74;90.66
41947;BME280;27638;42.184;24.848;2023-05-21T02:49:48;99502.41;;;17.73;90.74
41947;BME280;27638;42.184;24.848;2023-05-21T02:52:14;99501.97;;;17.76;90.33
41947;BME280;27638;42.184;24.848;2023-05-21T02:54:43;99502.41;;;17.66;91.29
41947;BME280;27638;42.184;24.848;2023-05-21T02:57:08;99508.97;;;17.77;90.74
41947;BME280;27638;42.184;24.848;2023-05-21T02:59:33;99503.41;;;17.78;90.20
41947;BME280;27638;42.184;24.848;2023-05-21T03:01:59;99503.63;;;17.64;90.83
41947;BME280;27638;42.184;24.848;2023-05-21T03:04:24;99500.53;;;17.73;90.76
41947;BME280;27638;42.184;24.848;2023-05-21T03:06:52;99503.22;;;17.73;90.18
41947;BME280;27638;42.184;24.848;2023-05-21T03:09:22;99504.03;;;17.67;90.53
41947;BME280;27638;42.184;24.848;2023-05-21T03:11:48;99512.06;;;17.67;90.59
41947;BME280;27638;42.184;24.848;2023-05-21T03:14:14;99504.69;;;17.56;90.90
41947;BME280;27638;42.184;24.848;2023-05-21T03:16:40;99502.00;;;17.56;90.97
41947;BME280;27638;42.184;24.848;2023-05-21T03:19:08;99510.81;;;17.63;91.59
41947;BME280;27638;42.184;24.848;2023-05-21T03:21:34;99501.75;;;17.64;91.48
41947;BME280;27638;42.184;24.848;2023-05-21T03:24:01;99500.31;;;17.62;91.37
41947;BME280;27638;42.184;24.848;2023-05-21T03:26:27;99506.28;;;17.64;91.76
41947;BME280;27638;42.184;24.848;2023-05-21T03:28:54;99510.63;;;17.65;91.62
41947;BME280;27638;42.184;24.848;2023-05-21T03:31:20;99508.56;;;17.67;91.82
41947;BME280;27638;42.184;24.848;2023-05-21T03:33:45;99505.06;;;17.60;92.02
41947;BME280;27638;42.184;24.848;2023-05-21T03:36:10;99501.00;;;17.50;92.71
41947;BME280;27638;42.184;24.848;2023-05-21T03:38:36;99504.09;;;17.47;93.13
41947;BME280;27638;42.184;24.848;2023-05-21T03:41:01;99510.84;;;17.56;93.16
41947;BME280;27638;42.184;24.848;2023-05-21T03:43:27;99505.72;;;17.55;92.23
41947;BME280;27638;42.184;24.848;2023-05-21T03:45:53;99514.13;;;17.65;91.72
41947;BME280;27638;42.184;24.848;2023-05-21T03:48:19;99515.34;;;17.63;91.99
41947;BME280;27638;42.184;24.848;2023-05-21T03:50:44;99505.91;;;17.60;92.27
41947;BME280;27638;42.184;24.848;2023-05-21T03:53:10;99515.03;;;17.46;93.80
41947;BME280;27638;42.184;24.848;2023-05-21T03:55:36;99514.06;;;17.27;94.86
41947;BME280;27638;42.184;24.848;2023-05-21T03:58:02;99504.19;;;17.28;95.09
41947;BME280;27638;42.184;24.848;2023-05-21T04:00:27;99507.00;;;17.39;93.24
41947;BME280;27638;42.184;24.848;2023-05-21T04:02:53;99509.06;;;17.44;92.64
41947;BME280;27638;42.184;24.848;2023-05-21T04:05:18;99502.47;;;17.46;92.72
41947;BME280;27638;42.184;24.848;2023-05-21T04:07:44;99503.25;;;17.53;92.36
41947;BME280;27638;42.184;24.848;2023-05-21T04:10:11;99503.84;;;17.55;92.50
41947;BME280;27638;42.184;24.848;2023-05-21T04:12:36;99505.06;;;17.66;91.85
41947;BME280;27638;42.184;24.848;2023-05-21T04:15:02;99500.50;;;17.80;91.48
41947;BME280;27638;42.184;24.848;2023-05-21T04:17:27;99496.75;;;17.88;90.24
41947;BME280;27638;42.184;24.848;2023-05-21T04:19:53;99501.88;;;17.89;89.97
41947;BME280;27638;42.184;24.848;2023-05-21T04:22:18;99494.69;;;17.90;89.35
41947;BME280;27638;42.184;24.848;2023-05-21T04:24:44;99506.44;;;17.89;90.27
41947;BME280;27638;42.184;24.848;2023-05-21T04:27:11;99512.28;;;17.72;91.64
41947;BME280;27638;42.184;24.848;2023-05-21T04:29:38;99515.31;;;17.82;91.59
41947;BME280;27638;42.184;24.848;2023-05-21T04:32:07;99512.00;;;17.87;90.39
41947;BME280;27638;42.184;24.848;2023-05-21T04:34:32;99510.78;;;17.83;90.79
41947;BME280;27638;42.184;24.848;2023-05-21T04:36:58;99505.38;;;17.90;90.38
41947;BME280;27638;42.184;24.848;2023-05-21T04:39:24;99509.00;;;17.70;91.93
41947;BME280;27638;42.184;24.848;2023-05-21T04:41:49;99505.16;;;17.91;91.33
41947;BME280;27638;42.184;24.848;2023-05-21T04:44:19;99516.53;;;17.86;91.67
41947;BME280;27638;42.184;24.848;2023-05-21T04:46:44;99514.13;;;17.72;92.48
41947;BME280;27638;42.184;24.848;2023-05-21T04:49:10;99518.00;;;17.82;91.96
41947;BME280;27638;42.184;24.848;2023-05-21T04:51:35;99497.13;;;17.91;90.42
41947;BME280;27638;42.184;24.848;2023-05-21T04:54:02;99502.28;;;17.93;90.06
41947;BME280;27638;42.184;24.848;2023-05-21T04:56:28;99508.25;;;17.95;90.56
41947;BME280;27638;42.184;24.848;2023-05-21T04:58:53;99509.47;;;17.99;90.72
41947;BME280;27638;42.184;24.848;2023-05-21T05:01:19;99509.06;;;17.95;90.98
41947;BME280;27638;42.184;24.848;2023-05-21T05:03:47;99520.34;;;18.04;91.08
41947;BME280;27638;42.184;24.848;2023-05-21T05:06:13;99523.09;;;17.91;91.11
41947;BME280;27638;42.184;24.848;2023-05-21T05:08:38;99521.50;;;17.83;92.17
41947;BME280;27638;42.184;24.848;2023-05-21T05:11:04;99521.84;;;17.93;91.58
41947;BME280;27638;42.184;24.848;2023-05-21T05:13:29;99524.50;;;18.00;91.55
41947;BME280;27638;42.184;24.848;2023-05-21T05:15:55;99523.53;;;17.88;92.36
41947;BME280;27638;42.184;24.848;2023-05-21T05:18:22;99522.19;;;18.03;91.87
41947;BME280;27638;42.184;24.848;2023-05-21T05:20:47;99533.81;;;17.91;91.74
41947;BME280;27638;42.184;24.848;2023-05-21T05:23:13;99536.47;;;17.97;91.67
41947;BME280;27638;42.184;24.848;2023-05-21T05:25:38;99535.03;;;17.95;92.39
41947;BME280;27638;42.184;24.848;2023-05-21T05:28:04;99544.63;;;18.09;92.01
41947;BME280;27638;42.184;24.848;2023-05-21T05:30:29;99539.34;;;17.96;92.91
41947;BME280;27638;42.184;24.848;2023-05-21T05:32:55;99540.19;;;17.96;93.44
41947;BME280;27638;42.184;24.848;2023-05-21T05:35:20;99547.00;;;17.92;95.30
41947;BME280;27638;42.184;24.848;2023-05-21T05:37:46;99546.56;;;17.95;98.09
41947;BME280;27638;42.184;24.848;2023-05-21T05:40:11;99542.06;;;17.89;100.00
41947;BME280;27638;42.184;24.848;2023-05-21T05:42:37;99538.03;;;18.11;100.00
41947;BME280;27638;42.184;24.848;2023-05-21T05:45:02;99542.63;;;17.98;100.00
41947;BME280;27638;42.184;24.848;2023-05-21T05:47:28;99539.31;;;18.02;100.00
41947;BME280;27638;42.184;24.848;2023-05-21T05:49:53;99530.03;;;18.05;100.00
41947;BME280;27638;42.184;24.848;2023-05-21T05:52:19;99538.84;;;18.12;100.00
41947;BME280;27638;42.184;24.848;2023-05-21T05:54:44;99536.50;;;18.22;100.00
41947;BME280;27638;42.184;24.848;2023-05-21T05:57:10;99527.44;;;18.23;100.00
41947;BME280;27638;42.184;24.848;2023-05-21T05:59:35;99535.22;;;18.31;100.00
41947;BME280;27638;42.184;24.848;2023-05-21T06:02:01;99537.03;;;18.37;100.00
41947;BME280;27638;42.184;24.848;2023-05-21T06:04:26;99541.72;;;18.42;100.00
41947;BME280;27638;42.184;24.848;2023-05-21T06:06:57;99538.41;;;18.46;100.00
41947;BME280;27638;42.184;24.848;2023-05-21T06:09:23;99530.94;;;18.48;100.00
41947;BME280;27638;42.184;24.848;2023-05-21T06:11:49;99534.03;;;18.52;100.00
41947;BME280;27638;42.184;24.848;2023-05-21T06:14:14;99530.50;;;18.51;100.00
41947;BME280;27638;42.184;24.848;2023-05-21T06:16:40;99534.19;;;18.57;100.00
41947;BME280;27638;42.184;24.848;2023-05-21T06:19:05;99532.09;;;18.59;100.00
41947;BME280;27638;42.184;24.848;2023-05-21T06:21:31;99535.00;;;18.58;100.00
41947;BME280;27638;42.184;24.848;2023-05-21T06:23:56;99544.28;;;18.62;100.00
41947;BME280;27638;42.184;24.848;2023-05-21T06:26:22;99537.19;;;18.74;99.84
41947;BME280;27638;42.184;24.848;2023-05-21T06:28:48;99535.50;;;18.79;98.57
41947;BME280;27638;42.184;24.848;2023-05-21T06:31:13;99536.09;;;18.81;98.39
41947;BME280;27638;42.184;24.848;2023-05-21T06:33:39;99541.63;;;18.87;97.44
41947;BME280;27638;42.184;24.848;2023-05-21T06:36:05;99543.03;;;18.89;96.50
41947;BME280;27638;42.184;24.848;2023-05-21T06:38:30;99539.09;;;18.92;95.95
41947;BME280;27638;42.184;24.848;2023-05-21T06:40:55;99552.88;;;18.95;94.84
41947;BME280;27638;42.184;24.848;2023-05-21T06:43:22;99547.69;;;19.00;94.56
41947;BME280;27638;42.184;24.848;2023-05-21T06:45:48;99543.06;;;19.07;93.75
41947;BME280;27638;42.184;24.848;2023-05-21T06:48:14;99549.19;;;19.14;92.07
41947;BME280;27638;42.184;24.848;2023-05-21T06:50:41;99541.34;;;19.13;89.53
41947;BME280;27638;42.184;24.848;2023-05-21T06:53:06;99544.03;;;19.13;87.25
41947;BME280;27638;42.184;24.848;2023-05-21T06:55:32;99544.56;;;19.22;85.43
41947;BME280;27638;42.184;24.848;2023-05-21T06:57:57;99541.28;;;19.20;84.90
41947;BME280;27638;42.184;24.848;2023-05-21T07:00:23;99537.34;;;19.22;85.96
41947;BME280;27638;42.184;24.848;2023-05-21T07:02:48;99544.50;;;19.28;84.22
41947;BME280;27638;42.184;24.848;2023-05-21T07:05:14;99546.13;;;19.29;85.24
41947;BME280;27638;42.184;24.848;2023-05-21T07:07:39;99547.72;;;19.37;86.21
41947;BME280;27638;42.184;24.848;2023-05-21T07:10:05;99545.41;;;19.40;87.82
41947;BME280;27638;42.184;24.848;2023-05-21T07:12:31;99543.09;;;19.44;92.18
41947;BME280;27638;42.184;24.848;2023-05-21T07:14:56;99541.38;;;19.50;93.31
41947;BME280;27638;42.184;24.848;2023-05-21T07:17:22;99548.00;;;19.47;94.22
41947;BME280;27638;42.184;24.848;2023-05-21T07:19:47;99541.75;;;19.53;92.81
41947;BME280;27638;42.184;24.848;2023-05-21T07:22:12;99540.31;;;19.51;91.35
41947;BME280;27638;42.184;24.848;2023-05-21T07:24:38;99547.97;;;19.54;90.24
41947;BME280;27638;42.184;24.848;2023-05-21T07:27:04;99545.88;;;19.56;86.53
41947;BME280;27638;42.184;24.848;2023-05-21T07:29:32;99548.69;;;19.61;84.17
41947;BME280;27638;42.184;24.848;2023-05-21T07:31:57;99546.59;;;19.63;83.50
41947;BME280;27638;42.184;24.848;2023-05-21T07:34:23;99556.59;;;19.74;83.90
41947;BME280;27638;42.184;24.848;2023-05-21T07:36:48;99553.84;;;19.81;81.96
41947;BME280;27638;42.184;24.848;2023-05-21T07:39:13;99554.44;;;19.83;81.34
41947;BME280;27638;42.184;24.848;2023-05-21T07:41:39;99558.22;;;19.93;80.19
41947;BME280;27638;42.184;24.848;2023-05-21T07:44:05;99548.31;;;19.94;79.44
41947;BME280;27638;42.184;24.848;2023-05-21T07:46:30;99557.69;;;20.03;78.26
41947;BME280;27638;42.184;24.848;2023-05-21T07:48:56;99558.41;;;20.10;78.39
41947;BME280;27638;42.184;24.848;2023-05-21T07:51:21;99560.41;;;20.15;77.22
41947;BME280;27638;42.184;24.848;2023-05-21T07:53:47;99562.66;;;20.18;74.94
41947;BME280;27638;42.184;24.848;2023-05-21T07:56:12;99568.75;;;20.25;76.50
41947;BME280;27638;42.184;24.848;2023-05-21T07:58:38;99569.25;;;20.33;76.71
41947;BME280;27638;42.184;24.848;2023-05-21T08:01:04;99563.16;;;20.38;76.17
41947;BME280;27638;42.184;24.848;2023-05-21T08:03:30;99560.19;;;20.46;73.68
41947;BME280;27638;42.184;24.848;2023-05-21T08:05:56;99565.59;;;20.58;71.73
41947;BME280;27638;42.184;24.848;2023-05-21T08:08:21;99561.38;;;20.62;71.23
41947;BME280;27638;42.184;24.848;2023-05-21T08:10:47;99569.94;;;20.70;71.23
41947;BME280;27638;42.184;24.848;2023-05-21T08:13:16;99561.75;;;20.77;70.34
41947;BME280;27638;42.184;24.848;2023-05-21T08:15:42;99566.22;;;20.83;69.82
41947;BME280;27638;42.184;24.848;2023-05-21T08:18:08;99569.63;;;20.90;69.60
41947;BME280;27638;42.184;24.848;2023-05-21T08:20:34;99564.38;;;20.95;68.12
41947;BME280;27638;42.184;24.848;2023-05-21T08:22:59;99568.81;;;21.01;67.02
41947;BME280;27638;42.184;24.848;2023-05-21T08:25:25;99562.13;;;21.04;67.30
41947;BME280;27638;42.184;24.848;2023-05-21T08:27:51;99567.75;;;21.14;65.16
41947;BME280;27638;42.184;24.848;2023-05-21T08:30:16;99565.78;;;21.33;65.32
41947;BME280;27638;42.184;24.848;2023-05-21T08:32:42;99573.56;;;21.58;64.19
41947;BME280;27638;42.184;24.848;2023-05-21T08:35:08;99568.16;;;21.70;62.66
41947;BME280;27638;42.184;24.848;2023-05-21T08:37:33;99572.38;;;21.65;63.74
41947;BME280;27638;42.184;24.848;2023-05-21T08:39:59;99564.19;;;21.60;63.24
41947;BME280;27638;42.184;24.848;2023-05-21T08:45:05;99551.13;;;21.41;64.71
41947;BME280;27638;42.184;24.848;2023-05-21T08:47:34;99555.00;;;21.33;61.73
41947;BME280;27638;42.184;24.848;2023-05-21T08:50:03;99547.63;;;21.28;62.12
41947;BME280;27638;42.184;24.848;2023-05-21T08:52:30;99549.97;;;21.25;62.33
41947;BME280;27638;42.184;24.848;2023-05-21T08:54:55;99549.50;;;21.28;62.06
41947;BME280;27638;42.184;24.848;2023-05-21T08:57:22;99550.53;;;21.39;63.53
41947;BME280;27638;42.184;24.848;2023-05-21T08:59:49;99548.88;;;21.49;60.00
41947;BME280;27638;42.184;24.848;2023-05-21T09:02:15;99545.13;;;21.50;58.17
41947;BME280;27638;42.184;24.848;2023-05-21T09:04:44;99548.03;;;21.60;57.45
41947;BME280;27638;42.184;24.848;2023-05-21T09:07:13;99543.91;;;21.70;59.27
41947;BME280;27638;42.184;24.848;2023-05-21T09:09:47;99545.16;;;21.79;57.36
41947;BME280;27638;42.184;24.848;2023-05-21T09:12:15;99546.56;;;21.81;56.07
41947;BME280;27638;42.184;24.848;2023-05-21T09:14:41;99538.94;;;21.90;54.74
41947;BME280;27638;42.184;24.848;2023-05-21T09:17:07;99551.22;;;21.97;56.17
41947;BME280;27638;42.184;24.848;2023-05-21T09:19:33;99550.28;;;22.04;54.88
41947;BME280;27638;42.184;24.848;2023-05-21T09:22:02;99553.44;;;22.01;54.68
41947;BME280;27638;42.184;24.848;2023-05-21T09:24:30;99539.72;;;22.02;53.20
41947;BME280;27638;42.184;24.848;2023-05-21T09:26:57;99550.97;;;21.99;52.82
41947;BME280;27638;42.184;24.848;2023-05-21T09:29:23;99539.94;;;22.01;53.29
41947;BME280;27638;42.184;24.848;2023-05-21T09:31:50;99535.25;;;22.08;55.30
41947;BME280;27638;42.184;24.848;2023-05-21T09:34:16;99538.88;;;22.02;53.43
41947;BME280;27638;42.184;24.848;2023-05-21T09:36:41;99539.63;;;21.97;55.03
41947;BME280;27638;42.184;24.848;2023-05-21T09:39:08;99537.88;;;21.91;52.58
41947;BME280;27638;42.184;24.848;2023-05-21T09:41:36;99537.16;;;21.95;52.22
41947;BME280;27638;42.184;24.848;2023-05-21T09:44:02;99541.50;;;21.96;54.42
41947;BME280;27638;42.184;24.848;2023-05-21T09:46:38;99541.94;;;22.05;54.42
41947;BME280;27638;42.184;24.848;2023-05-21T09:49:04;99536.91;;;22.09;52.36
41947;BME280;27638;42.184;24.848;2023-05-21T09:51:29;99544.66;;;22.05;51.07
41947;BME280;27638;42.184;24.848;2023-05-21T09:53:56;99548.16;;;22.06;52.99
41947;BME280;27638;42.184;24.848;2023-05-21T09:56:23;99553.88;;;22.09;54.10
41947;BME280;27638;42.184;24.848;2023-05-21T09:58:57;99554.47;;;22.11;53.68
41947;BME280;27638;42.184;24.848;2023-05-21T10:01:24;99553.66;;;22.11;54.14
41947;BME280;27638;42.184;24.848;2023-05-21T10:03:54;99542.53;;;22.07;54.95
41947;BME280;27638;42.184;24.848;2023-05-21T10:06:25;99534.22;;;21.97;57.31
41947;BME280;27638;42.184;24.848;2023-05-21T10:08:53;99531.19;;;21.93;57.69
41947;BME280;27638;42.184;24.848;2023-05-21T10:11:22;99531.91;;;21.89;55.99
41947;BME280;27638;42.184;24.848;2023-05-21T10:14:04;99536.81;;;21.92;55.08
41947;BME280;27638;42.184;24.848;2023-05-21T10:16:32;99545.81;;;21.97;54.43
41947;BME280;27638;42.184;24.848;2023-05-21T10:18:59;99537.00;;;22.02;52.89
41947;BME280;27638;42.184;24.848;2023-05-21T10:21:25;99542.13;;;22.15;52.22
41947;BME280;27638;42.184;24.848;2023-05-21T10:23:52;99548.53;;;22.26;53.23
41947;BME280;27638;42.184;24.848;2023-05-21T10:26:18;99545.78;;;22.38;51.23
41947;BME280;27638;42.184;24.848;2023-05-21T10:28:46;99541.34;;;22.48;50.47
41947;BME280;27638;42.184;24.848;2023-05-21T10:31:13;99533.44;;;22.58;52.29
41947;BME280;27638;42.184;24.848;2023-05-21T10:33:40;99541.53;;;22.75;52.35
41947;BME280;27638;42.184;24.848;2023-05-21T10:36:06;99542.19;;;22.82;49.05
41947;BME280;27638;42.184;24.848;2023-05-21T10:38:32;99549.09;;;22.90;47.50
41947;BME280;27638;42.184;24.848;2023-05-21T10:40:58;99551.81;;;22.90;48.05
41947;BME280;27638;42.184;24.848;2023-05-21T10:49:28;99544.72;;;22.72;51.38
41947;BME280;27638;42.184;24.848;2023-05-21T11:00:32;99536.63;;;22.72;55.62
41947;BME280;27638;42.184;24.848;2023-05-21T11:02:58;99544.06;;;22.65;50.05
41947;BME280;27638;42.184;24.848;2023-05-21T11:06:01;99537.44;;;22.56;52.51
41947;BME280;27638;42.184;24.848;2023-05-21T11:08:27;99538.34;;;22.61;53.87
41947;BME280;27638;42.184;24.848;2023-05-21T11:10:57;99539.25;;;22.67;54.71
41947;BME280;27638;42.184;24.848;2023-05-21T11:13:24;99535.88;;;22.60;52.70
41947;BME280;27638;42.184;24.848;2023-05-21T11:19:06;99539.47;;;22.49;51.99
41947;BME280;27638;42.184;24.848;2023-05-21T11:23:55;99532.94;;;22.45;52.53
41947;BME280;27638;42.184;24.848;2023-05-21T11:29:42;99525.34;;;22.42;53.49
41947;BME280;27638;42.184;24.848;2023-05-21T11:32:10;99532.59;;;22.41;55.08
41947;BME280;27638;42.184;24.848;2023-05-21T11:34:39;99526.31;;;22.36;55.17
41947;BME280;27638;42.184;24.848;2023-05-21T11:39:41;99537.59;;;22.33;56.35
41947;BME280;27638;42.184;24.848;2023-05-21T11:42:07;99533.16;;;22.26;55.37
41947;BME280;27638;42.184;24.848;2023-05-21T11:44:46;99528.75;;;22.20;55.27
41947;BME280;27638;42.184;24.848;2023-05-21T11:47:13;99531.09;;;22.17;55.34
41947;BME280;27638;42.184;24.848;2023-05-21T11:49:39;99535.94;;;22.15;56.22
41947;BME280;27638;42.184;24.848;2023-05-21T11:52:06;99521.28;;;22.11;56.61
41947;BME280;27638;42.184;24.848;2023-05-21T11:54:43;99522.59;;;22.08;57.65
41947;BME280;27638;42.184;24.848;2023-05-21T11:57:15;99528.47;;;22.05;57.63
41947;BME280;27638;42.184;24.848;2023-05-21T11:59:43;99520.63;;;22.04;57.63
41947;BME280;27638;42.184;24.848;2023-05-21T12:02:13;99520.50;;;21.98;58.12
41947;BME280;27638;42.184;24.848;2023-05-21T12:04:40;99518.03;;;21.97;58.91
41947;BME280;27638;42.184;24.848;2023-05-21T12:07:07;99516.41;;;21.96;60.10
41947;BME280;27638;42.184;24.848;2023-05-21T12:09:42;99512.06;;;21.95;60.66
41947;BME280;27638;42.184;24.848;2023-05-21T12:12:09;99512.06;;;21.95;60.86
41947;BME280;27638;42.184;24.848;2023-05-21T12:14:36;99514.78;;;21.95;61.19
41947;BME280;27638;42.184;24.848;2023-05-21T12:17:03;99511.25;;;21.94;62.30
41947;BME280;27638;42.184;24.848;2023-05-21T12:19:38;99506.94;;;21.93;62.37
41947;BME280;27638;42.184;24.848;2023-05-21T12:22:06;99505.78;;;21.89;62.91
41947;BME280;27638;42.184;24.848;2023-05-21T12:24:32;99483.75;;;21.81;62.43
41947;BME280;27638;42.184;24.848;2023-05-21T12:26:59;99501.88;;;21.97;62.16
41947;BME280;27638;42.184;24.848;2023-05-21T12:29:32;99500.81;;;21.98;62.09
41947;BME280;27638;42.184;24.848;2023-05-21T12:31:58;99497.41;;;22.03;62.23
41947;BME280;27638;42.184;24.848;2023-05-21T12:34:56;99499.16;;;22.09;60.74
41947;BME280;27638;42.184;24.848;2023-05-21T12:37:29;99497.34;;;22.14;60.68
41947;BME280;27638;42.184;24.848;2023-05-21T12:40:01;99496.72;;;22.24;60.66
41947;BME280;27638;42.184;24.848;2023-05-21T12:42:30;99498.53;;;22.35;60.95
41947;BME280;27638;42.184;24.848;2023-05-21T12:44:59;99498.94;;;22.44;61.13
41947;BME280;27638;42.184;24.848;2023-05-21T12:47:26;99495.75;;;22.47;58.57
41947;BME280;27638;42.184;24.848;2023-05-21T12:49:57;99495.81;;;22.52;59.04
41947;BME280;27638;42.184;24.848;2023-05-21T12:52:23;99493.19;;;22.57;58.91
41947;BME280;27638;42.184;24.848;2023-05-21T12:54:50;99497.38;;;22.65;58.28
41947;BME280;27638;42.184;24.848;2023-05-21T12:57:23;99497.78;;;22.73;58.11
41947;BME280;27638;42.184;24.848;2023-05-21T12:59:53;99496.69;;;22.74;57.04
41947;BME280;27638;42.184;24.848;2023-05-21T13:02:25;99492.78;;;22.82;56.56
41947;BME280;27638;42.184;24.848;2023-05-21T13:07:25;99488.78;;;22.84;54.77
41947;BME280;27638;42.184;24.848;2023-05-21T13:09:51;99485.75;;;22.81;55.78
41947;BME280;27638;42.184;24.848;2023-05-21T13:12:24;99496.69;;;22.74;54.86
41947;BME280;27638;42.184;24.848;2023-05-21T13:14:54;99494.00;;;22.74;57.40
41947;BME280;27638;42.184;24.848;2023-05-21T13:17:20;99489.41;;;22.75;58.11
41947;BME280;27638;42.184;24.848;2023-05-21T13:22:35;99494.41;;;22.66;56.57
41947;BME280;27638;42.184;24.848;2023-05-21T13:25:05;99491.06;;;22.59;58.92
41947;BME280;27638;42.184;24.848;2023-05-21T13:27:30;99496.88;;;22.68;57.83